sensor_id;sensor_type;location;lat;lon;timestamp;P1;durP1;ratioP1;P2;durP2;ratioP2
3447;SDS011;1738;49.500;17.736;2022-09-21T00:01:08;23.17;;;13.30;;
3447;SDS011;1738;49.500;17.736;2022-09-21T00:03:33;14.90;;;10.20;;
3447;SDS011;1738;49.500;17.736;2022-09-21T00:06:02;14.43;;;10.00;;
3447;SDS011;1738;49.500;17.736;2022-09-21T00:08:26;19.53;;;10.23;;
3447;SDS011;1738;49.500;17.736;2022-09-21T00:10:52;15.17;;;9.50;;
3447;SDS011;1738;49.500;17.736;2022-09-21T00:13:18;13.90;;;10.53;;
3447;SDS011;1738;49.500;17.736;2022-09-21T00:15:44;14.97;;;9.47;;
3447;SDS011;1738;49.500;17.736;2022-09-21T00:18:10;12.83;;;9.77;;
3447;SDS011;1738;49.500;17.736;2022-09-21T00:20:36;15.30;;;9.07;;
3447;SDS011;1738;49.500;17.736;2022-09-21T00:23:01;15.90;;;11.73;;
3447;SDS011;1738;49.500;17.736;2022-09-21T00:25:27;13.38;;;9.30;;
3447;SDS011;1738;49.500;17.736;2022-09-21T00:27:53;14.47;;;9.60;;
3447;SDS011;1738;49.500;17.736;2022-09-21T00:30:19;15.00;;;9.60;;
3447;SDS011;1738;49.500;17.736;2022-09-21T00:32:45;17.10;;;9.30;;
3447;SDS011;1738;49.500;17.736;2022-09-21T00:35:11;16.00;;;10.30;;
3447;SDS011;1738;49.500;17.736;2022-09-21T00:37:37;12.43;;;9.03;;
3447;SDS011;1738;49.500;17.736;2022-09-21T00:40:03;13.00;;;9.30;;
3447;SDS011;1738;49.500;17.736;2022-09-21T00:42:30;16.73;;;10.57;;
3447;SDS011;1738;49.500;17.736;2022-09-21T00:44:55;20.83;;;10.23;;
3447;SDS011;1738;49.500;17.736;2022-09-21T00:47:24;15.73;;;9.70;;
3447;SDS011;1738;49.500;17.736;2022-09-21T00:49:49;13.30;;;9.88;;
3447;SDS011;1738;49.500;17.736;2022-09-21T00:52:15;13.30;;;9.97;;
3447;SDS011;1738;49.500;17.736;2022-09-21T00:54:42;13.90;;;10.20;;
3447;SDS011;1738;49.500;17.736;2022-09-21T00:57:06;20.73;;;9.07;;
3447;SDS011;1738;49.500;17.736;2022-09-21T00:59:33;14.70;;;8.97;;
3447;SDS011;1738;49.500;17.736;2022-09-21T01:01:58;13.47;;;8.80;;
3447;SDS011;1738;49.500;17.736;2022-09-21T01:04:24;15.50;;;10.40;;
3447;SDS011;1738;49.500;17.736;2022-09-21T01:06:49;12.30;;;8.63;;
3447;SDS011;1738;49.500;17.736;2022-09-21T01:09:15;11.50;;;9.37;;
3447;SDS011;1738;49.500;17.736;2022-09-21T01:11:52;17.93;;;11.73;;
3447;SDS011;1738;49.500;17.736;2022-09-21T01:14:22;22.10;;;9.80;;
3447;SDS011;1738;49.500;17.736;2022-09-21T01:16:47;15.70;;;10.18;;
3447;SDS011;1738;49.500;17.736;2022-09-21T01:19:20;17.00;;;11.50;;
3447;SDS011;1738;49.500;17.736;2022-09-21T01:21:51;19.03;;;11.57;;
3447;SDS011;1738;49.500;17.736;2022-09-21T01:24:20;17.70;;;12.40;;
3447;SDS011;1738;49.500;17.736;2022-09-21T01:27:55;19.57;;;13.97;;
3447;SDS011;1738;49.500;17.736;2022-09-21T01:29:30;19.97;;;13.53;;
3447;SDS011;1738;49.500;17.736;2022-09-21T01:33:03;20.87;;;13.60;;
3447;SDS011;1738;49.500;17.736;2022-09-21T01:34:40;27.27;;;16.70;;
3447;SDS011;1738;49.500;17.736;2022-09-21T01:37:06;21.13;;;15.53;;
3447;SDS011;1738;49.500;17.736;2022-09-21T01:39:30;22.80;;;15.30;;
3447;SDS011;1738;49.500;17.736;2022-09-21T01:41:56;26.83;;;16.57;;
3447;SDS011;1738;49.500;17.736;2022-09-21T01:44:23;26.33;;;16.60;;
3447;SDS011;1738;49.500;17.736;2022-09-21T01:46:48;24.63;;;16.07;;
3447;SDS011;1738;49.500;17.736;2022-09-21T01:49:15;25.67;;;15.40;;
3447;SDS011;1738;49.500;17.736;2022-09-21T01:51:42;20.77;;;14.60;;
3447;SDS011;1738;49.500;17.736;2022-09-21T01:54:08;27.40;;;17.42;;
3447;SDS011;1738;49.500;17.736;2022-09-21T01:56:34;26.17;;;18.27;;
3447;SDS011;1738;49.500;17.736;2022-09-21T02:01:43;25.93;;;16.40;;
3447;SDS011;1738;49.500;17.736;2022-09-21T02:04:07;23.40;;;16.33;;
3447;SDS011;1738;49.500;17.736;2022-09-21T02:06:33;23.53;;;15.07;;
3447;SDS011;1738;49.500;17.736;2022-09-21T02:08:58;23.57;;;14.67;;
3447;SDS011;1738;49.500;17.736;2022-09-21T02:11:24;29.83;;;15.23;;
3447;SDS011;1738;49.500;17.736;2022-09-21T02:13:50;28.13;;;15.53;;
3447;SDS011;1738;49.500;17.736;2022-09-21T02:16:22;19.70;;;13.37;;
3447;SDS011;1738;49.500;17.736;2022-09-21T02:21:30;36.63;;;15.47;;
3447;SDS011;1738;49.500;17.736;2022-09-21T02:24:12;27.30;;;15.60;;
3447;SDS011;1738;49.500;17.736;2022-09-21T02:26:39;30.77;;;13.83;;
3447;SDS011;1738;49.500;17.736;2022-09-21T02:30:08;31.87;;;14.90;;
3447;SDS011;1738;49.500;17.736;2022-09-21T02:31:47;20.93;;;12.70;;
3447;SDS011;1738;49.500;17.736;2022-09-21T02:34:15;21.00;;;12.67;;
3447;SDS011;1738;49.500;17.736;2022-09-21T02:36:43;22.00;;;13.97;;
3447;SDS011;1738;49.500;17.736;2022-09-21T02:39:08;19.13;;;12.90;;
3447;SDS011;1738;49.500;17.736;2022-09-21T02:41:36;20.58;;;11.68;;
3447;SDS011;1738;49.500;17.736;2022-09-21T02:44:08;19.83;;;12.67;;
3447;SDS011;1738;49.500;17.736;2022-09-21T02:46:33;22.03;;;12.67;;
3447;SDS011;1738;49.500;17.736;2022-09-21T02:49:02;20.37;;;12.30;;
3447;SDS011;1738;49.500;17.736;2022-09-21T02:51:28;15.37;;;10.83;;
3447;SDS011;1738;49.500;17.736;2022-09-21T02:53:53;17.60;;;11.07;;
3447;SDS011;1738;49.500;17.736;2022-09-21T02:56:19;14.10;;;11.20;;
3447;SDS011;1738;49.500;17.736;2022-09-21T02:58:46;14.50;;;10.20;;
3447;SDS011;1738;49.500;17.736;2022-09-21T03:01:11;13.70;;;10.73;;
3447;SDS011;1738;49.500;17.736;2022-09-21T03:03:37;14.30;;;10.20;;
3447;SDS011;1738;49.500;17.736;2022-09-21T03:06:03;20.30;;;9.80;;
3447;SDS011;1738;49.500;17.736;2022-09-21T03:08:29;12.07;;;9.52;;
3447;SDS011;1738;49.500;17.736;2022-09-21T03:10:55;13.03;;;8.53;;
3447;SDS011;1738;49.500;17.736;2022-09-21T03:13:20;12.00;;;8.13;;
3447;SDS011;1738;49.500;17.736;2022-09-21T03:15:46;10.53;;;7.73;;
3447;SDS011;1738;49.500;17.736;2022-09-21T03:18:12;10.53;;;8.00;;
3447;SDS011;1738;49.500;17.736;2022-09-21T03:20:38;11.60;;;7.80;;
3447;SDS011;1738;49.500;17.736;2022-09-21T03:23:04;12.37;;;7.20;;
3447;SDS011;1738;49.500;17.736;2022-09-21T03:25:30;13.57;;;7.40;;
3447;SDS011;1738;49.500;17.736;2022-09-21T03:27:56;10.70;;;7.30;;
3447;SDS011;1738;49.500;17.736;2022-09-21T03:30:22;12.57;;;8.07;;
3447;SDS011;1738;49.500;17.736;2022-09-21T03:32:48;12.95;;;6.95;;
3447;SDS011;1738;49.500;17.736;2022-09-21T03:35:13;9.80;;;7.37;;
3447;SDS011;1738;49.500;17.736;2022-09-21T03:37:39;11.60;;;7.60;;
3447;SDS011;1738;49.500;17.736;2022-09-21T03:40:05;11.53;;;7.73;;
3447;SDS011;1738;49.500;17.736;2022-09-21T03:42:31;9.53;;;7.67;;
3447;SDS011;1738;49.500;17.736;2022-09-21T03:44:57;15.53;;;7.70;;
3447;SDS011;1738;49.500;17.736;2022-09-21T03:47:23;11.20;;;7.87;;
3447;SDS011;1738;49.500;17.736;2022-09-21T03:49:48;12.00;;;8.47;;
3447;SDS011;1738;49.500;17.736;2022-09-21T03:52:14;12.83;;;8.70;;
3447;SDS011;1738;49.500;17.736;2022-09-21T03:54:40;12.67;;;9.10;;
3447;SDS011;1738;49.500;17.736;2022-09-21T03:57:06;11.77;;;8.70;;
3447;SDS011;1738;49.500;17.736;2022-09-21T03:59:32;11.85;;;8.32;;
3447;SDS011;1738;49.500;17.736;2022-09-21T04:01:58;10.50;;;8.37;;
3447;SDS011;1738;49.500;17.736;2022-09-21T04:04:23;17.90;;;8.80;;
3447;SDS011;1738;49.500;17.736;2022-09-21T04:06:49;14.47;;;8.70;;
3447;SDS011;1738;49.500;17.736;2022-09-21T04:09:15;10.80;;;8.10;;
3447;SDS011;1738;49.500;17.736;2022-09-21T04:11:43;12.50;;;8.17;;
3447;SDS011;1738;49.500;17.736;2022-09-21T04:14:07;13.27;;;10.00;;
3447;SDS011;1738;49.500;17.736;2022-09-21T04:16:34;13.90;;;8.70;;
3447;SDS011;1738;49.500;17.736;2022-09-21T04:19:01;15.90;;;9.97;;
3447;SDS011;1738;49.500;17.736;2022-09-21T04:21:27;22.40;;;11.23;;
3447;SDS011;1738;49.500;17.736;2022-09-21T04:23:52;18.07;;;10.30;;
3447;SDS011;1738;49.500;17.736;2022-09-21T04:26:20;16.60;;;10.20;;
3447;SDS011;1738;49.500;17.736;2022-09-21T04:28:45;15.63;;;10.63;;
3447;SDS011;1738;49.500;17.736;2022-09-21T04:31:11;14.83;;;10.60;;
3447;SDS011;1738;49.500;17.736;2022-09-21T04:33:37;17.80;;;11.63;;
3447;SDS011;1738;49.500;17.736;2022-09-21T04:36:02;13.40;;;9.57;;
3447;SDS011;1738;49.500;17.736;2022-09-21T04:38:30;18.33;;;11.07;;
3447;SDS011;1738;49.500;17.736;2022-09-21T04:40:55;16.77;;;10.90;;
3447;SDS011;1738;49.500;17.736;2022-09-21T04:43:20;16.67;;;11.43;;
3447;SDS011;1738;49.500;17.736;2022-09-21T04:45:46;19.63;;;10.73;;
3447;SDS011;1738;49.500;17.736;2022-09-21T04:48:12;14.43;;;10.10;;
3447;SDS011;1738;49.500;17.736;2022-09-21T04:50:38;15.48;;;10.00;;
3447;SDS011;1738;49.500;17.736;2022-09-21T04:53:03;17.00;;;10.57;;
3447;SDS011;1738;49.500;17.736;2022-09-21T04:55:29;13.47;;;10.10;;
3447;SDS011;1738;49.500;17.736;2022-09-21T04:57:55;14.83;;;9.57;;
3447;SDS011;1738;49.500;17.736;2022-09-21T05:00:21;19.03;;;10.07;;
3447;SDS011;1738;49.500;17.736;2022-09-21T05:02:47;20.87;;;9.77;;
3447;SDS011;1738;49.500;17.736;2022-09-21T05:05:13;15.50;;;9.27;;
3447;SDS011;1738;49.500;17.736;2022-09-21T05:07:39;19.43;;;11.17;;
3447;SDS011;1738;49.500;17.736;2022-09-21T05:10:05;17.40;;;9.37;;
3447;SDS011;1738;49.500;17.736;2022-09-21T05:12:32;17.47;;;10.80;;
3447;SDS011;1738;49.500;17.736;2022-09-21T05:14:57;15.57;;;10.70;;
3447;SDS011;1738;49.500;17.736;2022-09-21T05:17:23;20.37;;;10.70;;
3447;SDS011;1738;49.500;17.736;2022-09-21T05:19:49;19.50;;;11.30;;
3447;SDS011;1738;49.500;17.736;2022-09-21T05:22:15;20.53;;;12.30;;
3447;SDS011;1738;49.500;17.736;2022-09-21T05:24:40;18.30;;;11.40;;
3447;SDS011;1738;49.500;17.736;2022-09-21T05:27:06;20.53;;;10.93;;
3447;SDS011;1738;49.500;17.736;2022-09-21T05:29:32;27.80;;;12.67;;
3447;SDS011;1738;49.500;17.736;2022-09-21T05:32:05;17.58;;;11.43;;
3447;SDS011;1738;49.500;17.736;2022-09-21T05:34:35;18.73;;;13.13;;
3447;SDS011;1738;49.500;17.736;2022-09-21T05:37:00;21.33;;;13.03;;
3447;SDS011;1738;49.500;17.736;2022-09-21T05:39:25;19.60;;;12.70;;
3447;SDS011;1738;49.500;17.736;2022-09-21T05:41:51;22.30;;;13.33;;
3447;SDS011;1738;49.500;17.736;2022-09-21T05:44:17;21.13;;;14.47;;
3447;SDS011;1738;49.500;17.736;2022-09-21T05:46:48;26.83;;;13.20;;
3447;SDS011;1738;49.500;17.736;2022-09-21T05:49:16;21.77;;;13.50;;
3447;SDS011;1738;49.500;17.736;2022-09-21T05:51:44;22.97;;;12.93;;
3447;SDS011;1738;49.500;17.736;2022-09-21T05:54:14;21.80;;;14.25;;
3447;SDS011;1738;49.500;17.736;2022-09-21T05:56:48;20.37;;;13.73;;
3447;SDS011;1738;49.500;17.736;2022-09-21T05:59:36;21.20;;;12.70;;
3447;SDS011;1738;49.500;17.736;2022-09-21T06:02:01;24.53;;;14.00;;
3447;SDS011;1738;49.500;17.736;2022-09-21T06:04:24;19.23;;;12.18;;
3447;SDS011;1738;49.500;17.736;2022-09-21T06:06:50;20.80;;;12.80;;
3447;SDS011;1738;49.500;17.736;2022-09-21T06:09:16;22.23;;;13.43;;
3447;SDS011;1738;49.500;17.736;2022-09-21T06:11:41;16.80;;;11.47;;
3447;SDS011;1738;49.500;17.736;2022-09-21T06:14:07;24.17;;;14.70;;
3447;SDS011;1738;49.500;17.736;2022-09-21T06:16:38;21.83;;;14.70;;
3447;SDS011;1738;49.500;17.736;2022-09-21T06:19:04;28.93;;;14.70;;
3447;SDS011;1738;49.500;17.736;2022-09-21T06:21:30;28.20;;;14.33;;
3447;SDS011;1738;49.500;17.736;2022-09-21T06:23:55;25.40;;;14.30;;
3447;SDS011;1738;49.500;17.736;2022-09-21T06:26:21;26.07;;;15.37;;
3447;SDS011;1738;49.500;17.736;2022-09-21T06:28:47;26.57;;;14.80;;
3447;SDS011;1738;49.500;17.736;2022-09-21T06:31:13;21.30;;;13.13;;
3447;SDS011;1738;49.500;17.736;2022-09-21T06:33:39;22.50;;;13.97;;
3447;SDS011;1738;49.500;17.736;2022-09-21T06:36:05;20.47;;;13.10;;
3447;SDS011;1738;49.500;17.736;2022-09-21T06:38:30;27.00;;;14.90;;
3447;SDS011;1738;49.500;17.736;2022-09-21T06:41:00;21.20;;;13.73;;
3447;SDS011;1738;49.500;17.736;2022-09-21T06:43:22;28.33;;;14.93;;
3447;SDS011;1738;49.500;17.736;2022-09-21T06:45:52;26.23;;;14.20;;
3447;SDS011;1738;49.500;17.736;2022-09-21T06:48:17;24.57;;;14.03;;
3447;SDS011;1738;49.500;17.736;2022-09-21T06:50:43;21.57;;;13.17;;
3447;SDS011;1738;49.500;17.736;2022-09-21T06:53:09;22.50;;;14.60;;
3447;SDS011;1738;49.500;17.736;2022-09-21T06:55:34;25.60;;;14.30;;
3447;SDS011;1738;49.500;17.736;2022-09-21T06:58:00;21.20;;;13.30;;
3447;SDS011;1738;49.500;17.736;2022-09-21T07:00:26;27.40;;;11.70;;
3447;SDS011;1738;49.500;17.736;2022-09-21T07:02:52;20.30;;;12.37;;
3447;SDS011;1738;49.500;17.736;2022-09-21T07:05:18;22.20;;;11.40;;
3447;SDS011;1738;49.500;17.736;2022-09-21T07:07:44;15.87;;;10.57;;
3447;SDS011;1738;49.500;17.736;2022-09-21T07:10:09;15.43;;;11.80;;
3447;SDS011;1738;49.500;17.736;2022-09-21T07:12:35;20.03;;;12.90;;
3447;SDS011;1738;49.500;17.736;2022-09-21T07:15:02;20.33;;;11.00;;
3447;SDS011;1738;49.500;17.736;2022-09-21T07:17:31;21.53;;;10.87;;
3447;SDS011;1738;49.500;17.736;2022-09-21T07:19:56;15.37;;;9.70;;
3447;SDS011;1738;49.500;17.736;2022-09-21T07:22:22;13.83;;;10.30;;
3447;SDS011;1738;49.500;17.736;2022-09-21T07:24:47;18.97;;;10.97;;
3447;SDS011;1738;49.500;17.736;2022-09-21T07:27:13;18.97;;;10.30;;
3447;SDS011;1738;49.500;17.736;2022-09-21T07:29:39;16.20;;;11.33;;
3447;SDS011;1738;49.500;17.736;2022-09-21T07:32:05;20.27;;;11.70;;
3447;SDS011;1738;49.500;17.736;2022-09-21T07:34:33;19.40;;;12.10;;
3447;SDS011;1738;49.500;17.736;2022-09-21T07:36:59;23.73;;;13.13;;
3447;SDS011;1738;49.500;17.736;2022-09-21T07:39:24;26.00;;;15.33;;
3447;SDS011;1738;49.500;17.736;2022-09-21T07:41:50;22.07;;;14.30;;
3447;SDS011;1738;49.500;17.736;2022-09-21T07:44:16;27.53;;;15.10;;
3447;SDS011;1738;49.500;17.736;2022-09-21T07:46:42;24.23;;;15.60;;
3447;SDS011;1738;49.500;17.736;2022-09-21T07:49:09;21.90;;;14.00;;
3447;SDS011;1738;49.500;17.736;2022-09-21T07:51:34;24.58;;;14.07;;
3447;SDS011;1738;49.500;17.736;2022-09-21T07:54:00;20.57;;;13.30;;
3447;SDS011;1738;49.500;17.736;2022-09-21T07:56:25;19.20;;;12.37;;
3447;SDS011;1738;49.500;17.736;2022-09-21T07:58:51;16.20;;;13.30;;
3447;SDS011;1738;49.500;17.736;2022-09-21T08:01:23;15.13;;;9.87;;
3447;SDS011;1738;49.500;17.736;2022-09-21T08:03:49;16.53;;;9.87;;
3447;SDS011;1738;49.500;17.736;2022-09-21T08:06:15;17.87;;;11.43;;
3447;SDS011;1738;49.500;17.736;2022-09-21T08:08:40;17.37;;;12.37;;
3447;SDS011;1738;49.500;17.736;2022-09-21T08:11:07;17.23;;;10.03;;
3447;SDS011;1738;49.500;17.736;2022-09-21T08:13:32;15.00;;;8.15;;
3447;SDS011;1738;49.500;17.736;2022-09-21T08:15:59;12.40;;;6.40;;
3447;SDS011;1738;49.500;17.736;2022-09-21T08:18:25;6.07;;;5.20;;
3447;SDS011;1738;49.500;17.736;2022-09-21T08:20:52;5.35;;;4.50;;
3447;SDS011;1738;49.500;17.736;2022-09-21T08:23:17;6.00;;;4.50;;
3447;SDS011;1738;49.500;17.736;2022-09-21T08:25:43;5.85;;;3.47;;
3447;SDS011;1738;49.500;17.736;2022-09-21T08:28:09;7.23;;;5.60;;
3447;SDS011;1738;49.500;17.736;2022-09-21T08:30:35;9.37;;;6.90;;
3447;SDS011;1738;49.500;17.736;2022-09-21T08:33:01;9.37;;;6.60;;
3447;SDS011;1738;49.500;17.736;2022-09-21T08:35:27;9.27;;;5.87;;
3447;SDS011;1738;49.500;17.736;2022-09-21T08:37:52;7.50;;;5.57;;
3447;SDS011;1738;49.500;17.736;2022-09-21T08:40:18;7.60;;;5.67;;
3447;SDS011;1738;49.500;17.736;2022-09-21T08:42:49;10.40;;;6.33;;
3447;SDS011;1738;49.500;17.736;2022-09-21T08:45:15;6.80;;;4.30;;
3447;SDS011;1738;49.500;17.736;2022-09-21T08:47:41;8.27;;;5.03;;
3447;SDS011;1738;49.500;17.736;2022-09-21T08:50:11;5.70;;;4.33;;
3447;SDS011;1738;49.500;17.736;2022-09-21T08:52:32;5.70;;;4.15;;
3447;SDS011;1738;49.500;17.736;2022-09-21T08:55:00;5.80;;;3.90;;
3447;SDS011;1738;49.500;17.736;2022-09-21T08:57:26;16.87;;;5.50;;
3447;SDS011;1738;49.500;17.736;2022-09-21T08:59:50;4.20;;;3.20;;
3447;SDS011;1738;49.500;17.736;2022-09-21T09:02:29;4.30;;;3.50;;
3447;SDS011;1738;49.500;17.736;2022-09-21T09:07:27;8.40;;;3.00;;
3447;SDS011;1738;49.500;17.736;2022-09-21T09:09:53;3.60;;;2.80;;
3447;SDS011;1738;49.500;17.736;2022-09-21T09:15:29;4.57;;;2.50;;
3447;SDS011;1738;49.500;17.736;2022-09-21T09:17:40;3.37;;;2.03;;
3447;SDS011;1738;49.500;17.736;2022-09-21T09:20:10;3.90;;;2.83;;
3447;SDS011;1738;49.500;17.736;2022-09-21T09:22:36;4.23;;;2.30;;
3447;SDS011;1738;49.500;17.736;2022-09-21T09:25:01;3.83;;;2.50;;
3447;SDS011;1738;49.500;17.736;2022-09-21T09:27:27;3.70;;;2.90;;
3447;SDS011;1738;49.500;17.736;2022-09-21T09:29:54;6.00;;;2.73;;
3447;SDS011;1738;49.500;17.736;2022-09-21T09:32:20;6.90;;;2.70;;
3447;SDS011;1738;49.500;17.736;2022-09-21T09:34:51;6.90;;;3.30;;
3447;SDS011;1738;49.500;17.736;2022-09-21T09:37:16;5.50;;;3.50;;
3447;SDS011;1738;49.500;17.736;2022-09-21T09:39:42;4.43;;;3.30;;
3447;SDS011;1738;49.500;17.736;2022-09-21T09:42:22;5.50;;;3.97;;
3447;SDS011;1738;49.500;17.736;2022-09-21T09:44:53;5.77;;;3.70;;
3447;SDS011;1738;49.500;17.736;2022-09-21T09:47:35;6.68;;;3.62;;
3447;SDS011;1738;49.500;17.736;2022-09-21T09:50:00;5.70;;;3.40;;
3447;SDS011;1738;49.500;17.736;2022-09-21T09:52:23;5.80;;;3.77;;
3447;SDS011;1738;49.500;17.736;2022-09-21T09:54:49;5.63;;;4.20;;
3447;SDS011;1738;49.500;17.736;2022-09-21T09:57:15;3.87;;;3.00;;
3447;SDS011;1738;49.500;17.736;2022-09-21T09:59:42;3.40;;;2.67;;
3447;SDS011;1738;49.500;17.736;2022-09-21T10:02:10;8.33;;;2.87;;
3447;SDS011;1738;49.500;17.736;2022-09-21T10:04:32;4.37;;;1.90;;
3447;SDS011;1738;49.500;17.736;2022-09-21T10:06:58;4.67;;;2.33;;
3447;SDS011;1738;49.500;17.736;2022-09-21T10:09:26;3.53;;;1.93;;
3447;SDS011;1738;49.500;17.736;2022-09-21T10:11:51;3.90;;;2.20;;
3447;SDS011;1738;49.500;17.736;2022-09-21T10:14:20;7.10;;;2.70;;
3447;SDS011;1738;49.500;17.736;2022-09-21T10:16:44;3.10;;;2.13;;
3447;SDS011;1738;49.500;17.736;2022-09-21T10:19:14;3.57;;;2.17;;
3447;SDS011;1738;49.500;17.736;2022-09-21T10:21:39;5.33;;;2.00;;
3447;SDS011;1738;49.500;17.736;2022-09-21T10:24:06;2.33;;;1.50;;
3447;SDS011;1738;49.500;17.736;2022-09-21T10:26:31;3.10;;;2.00;;
3447;SDS011;1738;49.500;17.736;2022-09-21T10:28:58;2.92;;;2.15;;
3447;SDS011;1738;49.500;17.736;2022-09-21T10:31:24;2.97;;;1.60;;
3447;SDS011;1738;49.500;17.736;2022-09-21T10:33:51;2.23;;;1.23;;
3447;SDS011;1738;49.500;17.736;2022-09-21T10:38:47;2.73;;;1.60;;
3447;SDS011;1738;49.500;17.736;2022-09-21T10:41:13;5.80;;;1.60;;
3447;SDS011;1738;49.500;17.736;2022-09-21T10:43:40;2.20;;;1.20;;
3447;SDS011;1738;49.500;17.736;2022-09-21T10:46:05;2.60;;;1.30;;
3447;SDS011;1738;49.500;17.736;2022-09-21T10:48:31;1.97;;;1.20;;
3447;SDS011;1738;49.500;17.736;2022-09-21T10:50:56;2.50;;;1.23;;
3447;SDS011;1738;49.500;17.736;2022-09-21T10:53:25;6.90;;;1.97;;
3447;SDS011;1738;49.500;17.736;2022-09-21T10:55:52;4.40;;;2.53;;
3447;SDS011;1738;49.500;17.736;2022-09-21T10:58:17;6.97;;;4.40;;
3447;SDS011;1738;49.500;17.736;2022-09-21T11:00:44;5.40;;;3.07;;
3447;SDS011;1738;49.500;17.736;2022-09-21T11:03:32;5.67;;;2.60;;
3447;SDS011;1738;49.500;17.736;2022-09-21T11:05:57;2.85;;;1.67;;
3447;SDS011;1738;49.500;17.736;2022-09-21T11:08:32;3.47;;;1.90;;
3447;SDS011;1738;49.500;17.736;2022-09-21T11:10:59;2.67;;;1.90;;
3447;SDS011;1738;49.500;17.736;2022-09-21T11:13:26;2.60;;;1.83;;
3447;SDS011;1738;49.500;17.736;2022-09-21T11:15:53;2.95;;;2.05;;
3447;SDS011;1738;49.500;17.736;2022-09-21T11:18:24;9.80;;;6.37;;
3447;SDS011;1738;49.500;17.736;2022-09-21T11:20:51;3.10;;;2.10;;
3447;SDS011;1738;49.500;17.736;2022-09-21T11:23:20;2.85;;;1.50;;
3447;SDS011;1738;49.500;17.736;2022-09-21T11:25:53;2.93;;;1.90;;
3447;SDS011;1738;49.500;17.736;2022-09-21T11:28:22;11.30;;;2.70;;
3447;SDS011;1738;49.500;17.736;2022-09-21T11:30:58;3.83;;;2.92;;
3447;SDS011;1738;49.500;17.736;2022-09-21T11:33:26;2.83;;;1.77;;
3447;SDS011;1738;49.500;17.736;2022-09-21T11:44:11;4.73;;;2.10;;
3447;SDS011;1738;49.500;17.736;2022-09-21T11:46:36;3.13;;;1.83;;
3447;SDS011;1738;49.500;17.736;2022-09-21T11:49:11;3.03;;;1.90;;
3447;SDS011;1738;49.500;17.736;2022-09-21T11:51:39;3.40;;;1.83;;
3447;SDS011;1738;49.500;17.736;2022-09-21T11:54:08;2.80;;;1.70;;
3447;SDS011;1738;49.500;17.736;2022-09-21T11:56:33;2.70;;;1.57;;
3447;SDS011;1738;49.500;17.736;2022-09-21T11:59:03;4.00;;;1.57;;
3447;SDS011;1738;49.500;17.736;2022-09-21T12:01:32;2.65;;;1.55;;
3447;SDS011;1738;49.500;17.736;2022-09-21T12:04:01;4.83;;;1.77;;
3447;SDS011;1738;49.500;17.736;2022-09-21T12:09:02;3.00;;;1.60;;
3447;SDS011;1738;49.500;17.736;2022-09-21T12:16:42;3.67;;;1.90;;
3447;SDS011;1738;49.500;17.736;2022-09-21T12:19:11;3.27;;;1.60;;
3447;SDS011;1738;49.500;17.736;2022-09-21T12:21:35;4.07;;;1.80;;
3447;SDS011;1738;49.500;17.736;2022-09-21T12:24:02;2.90;;;1.60;;
3447;SDS011;1738;49.500;17.736;2022-09-21T12:26:28;4.27;;;2.03;;
3447;SDS011;1738;49.500;17.736;2022-09-21T12:28:53;2.80;;;1.60;;
3447;SDS011;1738;49.500;17.736;2022-09-21T12:31:22;5.53;;;1.43;;
3447;SDS011;1738;49.500;17.736;2022-09-21T12:33:47;3.37;;;1.90;;
3447;SDS011;1738;49.500;17.736;2022-09-21T12:36:15;3.13;;;1.53;;
3447;SDS011;1738;49.500;17.736;2022-09-21T12:38:42;7.30;;;2.70;;
3447;SDS011;1738;49.500;17.736;2022-09-21T12:41:11;4.20;;;2.15;;
3447;SDS011;1738;49.500;17.736;2022-09-21T12:44:44;3.17;;;1.90;;
3447;SDS011;1738;49.500;17.736;2022-09-21T12:46:22;3.90;;;1.67;;
3447;SDS011;1738;49.500;17.736;2022-09-21T12:48:46;2.63;;;1.80;;
3447;SDS011;1738;49.500;17.736;2022-09-21T12:53:53;5.27;;;4.07;;
3447;SDS011;1738;49.500;17.736;2022-09-21T12:56:21;6.33;;;2.57;;
3447;SDS011;1738;49.500;17.736;2022-09-21T12:58:49;3.70;;;2.30;;
3447;SDS011;1738;49.500;17.736;2022-09-21T13:01:50;9.23;;;7.87;;
3447;SDS011;1738;49.500;17.736;2022-09-21T13:04:00;3.12;;;2.05;;
3447;SDS011;1738;49.500;17.736;2022-09-21T13:08:55;7.30;;;5.13;;
3447;SDS011;1738;49.500;17.736;2022-09-21T13:11:21;4.17;;;2.23;;
3447;SDS011;1738;49.500;17.736;2022-09-21T13:13:48;4.00;;;1.63;;
3447;SDS011;1738;49.500;17.736;2022-09-21T13:18:45;8.33;;;3.77;;
3447;SDS011;1738;49.500;17.736;2022-09-21T13:23:43;4.50;;;2.80;;
3447;SDS011;1738;49.500;17.736;2022-09-21T13:26:09;6.50;;;4.60;;
3447;SDS011;1738;49.500;17.736;2022-09-21T13:36:29;3.37;;;1.57;;
3447;SDS011;1738;49.500;17.736;2022-09-21T13:38:55;2.80;;;1.70;;
3447;SDS011;1738;49.500;17.736;2022-09-21T13:41:24;2.70;;;1.63;;
3447;SDS011;1738;49.500;17.736;2022-09-21T13:43:59;2.73;;;1.30;;
3447;SDS011;1738;49.500;17.736;2022-09-21T13:46:48;2.53;;;1.43;;
3447;SDS011;1738;49.500;17.736;2022-09-21T13:49:17;3.17;;;2.27;;
3447;SDS011;1738;49.500;17.736;2022-09-21T13:54:13;7.03;;;3.70;;
3447;SDS011;1738;49.500;17.736;2022-09-21T13:56:39;10.88;;;9.77;;
3447;SDS011;1738;49.500;17.736;2022-09-21T13:59:05;14.33;;;7.73;;
3447;SDS011;1738;49.500;17.736;2022-09-21T14:01:31;4.33;;;2.70;;
3447;SDS011;1738;49.500;17.736;2022-09-21T14:03:59;3.00;;;1.97;;
3447;SDS011;1738;49.500;17.736;2022-09-21T14:06:26;2.90;;;1.60;;
3447;SDS011;1738;49.500;17.736;2022-09-21T14:08:53;2.73;;;1.63;;
3447;SDS011;1738;49.500;17.736;2022-09-21T14:11:35;2.77;;;1.40;;
3447;SDS011;1738;49.500;17.736;2022-09-21T14:14:34;2.50;;;1.33;;
3447;SDS011;1738;49.500;17.736;2022-09-21T14:16:49;3.80;;;2.47;;
3447;SDS011;1738;49.500;17.736;2022-09-21T14:22:34;4.93;;;3.77;;
3447;SDS011;1738;49.500;17.736;2022-09-21T14:24:45;16.20;;;9.80;;
3447;SDS011;1738;49.500;17.736;2022-09-21T14:29:43;15.73;;;6.53;;
3447;SDS011;1738;49.500;17.736;2022-09-21T14:32:11;4.37;;;2.97;;
3447;SDS011;1738;49.500;17.736;2022-09-21T14:34:34;4.30;;;2.77;;
3447;SDS011;1738;49.500;17.736;2022-09-21T14:37:01;4.90;;;2.33;;
3447;SDS011;1738;49.500;17.736;2022-09-21T14:39:29;3.07;;;2.03;;
3447;SDS011;1738;49.500;17.736;2022-09-21T14:41:55;2.97;;;2.27;;
3447;SDS011;1738;49.500;17.736;2022-09-21T14:44:20;4.73;;;2.00;;
3447;SDS011;1738;49.500;17.736;2022-09-21T14:46:58;5.57;;;2.90;;
3447;SDS011;1738;49.500;17.736;2022-09-21T14:49:32;4.50;;;2.37;;
3447;SDS011;1738;49.500;17.736;2022-09-21T14:52:01;2.90;;;1.70;;
3447;SDS011;1738;49.500;17.736;2022-09-21T14:54:31;2.93;;;1.70;;
3447;SDS011;1738;49.500;17.736;2022-09-21T14:57:12;2.50;;;1.60;;
3447;SDS011;1738;49.500;17.736;2022-09-21T14:59:39;3.50;;;1.93;;
3447;SDS011;1738;49.500;17.736;2022-09-21T15:02:02;4.17;;;2.53;;
3447;SDS011;1738;49.500;17.736;2022-09-21T15:04:37;2.97;;;1.70;;
3447;SDS011;1738;49.500;17.736;2022-09-21T15:07:01;4.20;;;2.07;;
3447;SDS011;1738;49.500;17.736;2022-09-21T15:12:11;8.80;;;6.50;;
3447;SDS011;1738;49.500;17.736;2022-09-21T15:14:36;10.50;;;6.40;;
3447;SDS011;1738;49.500;17.736;2022-09-21T15:17:17;10.50;;;7.07;;
3447;SDS011;1738;49.500;17.736;2022-09-21T15:19:28;10.50;;;7.57;;
3447;SDS011;1738;49.500;17.736;2022-09-21T15:21:54;11.80;;;8.07;;
3447;SDS011;1738;49.500;17.736;2022-09-21T15:24:22;7.00;;;4.77;;
3447;SDS011;1738;49.500;17.736;2022-09-21T15:26:47;5.43;;;3.70;;
3447;SDS011;1738;49.500;17.736;2022-09-21T15:29:25;8.47;;;5.57;;
3447;SDS011;1738;49.500;17.736;2022-09-21T15:31:52;18.77;;;12.40;;
3447;SDS011;1738;49.500;17.736;2022-09-21T15:34:21;17.60;;;13.10;;
3447;SDS011;1738;49.500;17.736;2022-09-21T15:36:47;14.33;;;11.80;;
3447;SDS011;1738;49.500;17.736;2022-09-21T15:41:45;12.60;;;9.43;;
3447;SDS011;1738;49.500;17.736;2022-09-21T15:44:13;10.73;;;6.15;;
3447;SDS011;1738;49.500;17.736;2022-09-21T15:46:38;5.80;;;5.07;;
3447;SDS011;1738;49.500;17.736;2022-09-21T15:49:04;5.30;;;4.03;;